Time;durP1;ratioP1;P1;durP2;ratioP2;P2;SDS_P1;SDS_P2;PMS_P1;PMS_P2;Temp;Humidity;BMP_temperature;BMP_pressure;BME280_temperature;BME280_humidity;BME280_pressure;Samples;Min_cycle;Max_cycle;Signal;HPM_P1;HPM_P2
2024/04/20 00:01:02;;;;;;;5.28;3.22;;;;;;;1.63;100.00;100989.97;5391955;26;20352;-73
2024/04/20 00:03:28;;;;;;;7.90;3.33;;;;;;;1.58;100.00;100994.84;5440108;26;19999;-73
2024/04/20 00:05:54;;;;;;;;;;;;;;;1.51;100.00;100994.53;5431294;26;20031;-73
2024/04/20 00:08:19;;;;;;;8.93;3.28;;;;;;;1.45;100.00;100999.53;5441525;26;20313;-73
2024/04/20 00:10:44;;;;;;;6.57;2.78;;;;;;;1.47;100.00;101003.75;5440314;26;20014;-73
2024/04/20 00:13:10;;;;;;;7.05;2.90;;;;;;;1.53;100.00;101002.38;5441660;26;19995;-73
2024/04/20 00:15:41;;;;;;;7.82;3.28;;;;;;;1.61;100.00;101007.81;5437479;26;20003;-73
2024/04/20 00:18:06;;;;;;;10.18;3.08;;;;;;;1.66;100.00;101010.09;5421008;26;20450;-73
2024/04/20 00:20:32;;;;;;;6.60;2.83;;;;;;;1.73;100.00;101002.44;5441312;26;19995;-73
2024/04/20 00:22:58;;;;;;;;;;;;;;;1.67;100.00;101015.25;5442482;26;20003;-73
2024/04/20 00:25:23;;;;;;;7.55;3.25;;;;;;;1.64;100.00;101012.03;5438364;26;19940;-73
2024/04/20 00:27:48;;;;;;;8.63;3.43;;;;;;;1.66;100.00;101008.28;5442700;26;20427;-73
2024/04/20 00:30:14;;;;;;;10.97;3.73;;;;;;;1.74;100.00;101012.91;5407782;26;20284;-73
2024/04/20 00:32:39;;;;;;;13.05;3.55;;;;;;;1.83;100.00;101016.56;5420754;26;20302;-73
2024/04/20 00:35:05;;;;;;;8.23;3.17;;;;;;;1.90;100.00;101008.88;5433373;26;19994;-73
2024/04/20 00:37:30;;;;;;;9.07;3.80;;;;;;;1.94;100.00;101013.78;5441043;26;20135;-74
2024/04/20 00:39:55;;;;;;;;;;;;;;;2.03;100.00;101019.25;5428741;26;20081;-74
2024/04/20 00:42:21;;;;;;;8.40;3.00;;;;;;;2.05;100.00;101022.63;5438347;26;20369;-73
2024/04/20 00:44:46;;;;;;;;;;;;;;;2.04;100.00;101020.94;5422006;26;20003;-72
2024/04/20 00:47:11;;;;;;;8.87;2.90;;;;;;;2.00;100.00;101019.53;5432350;26;19924;-74
2024/04/20 00:49:36;;;;;;;;;;;;;;;1.96;100.00;101027.75;5391693;26;20042;-73
2024/04/20 00:52:04;;;;;;;11.20;2.87;;;;;;;2.09;100.00;101026.69;5407702;26;19932;-74
2024/04/20 00:54:30;;;;;;;10.32;3.58;;;;;;;2.16;100.00;101024.31;5406970;26;20371;-73
2024/04/20 00:56:55;;;;;;;;;;;;;;;2.08;100.00;101036.47;5410756;26;19998;-74
2024/04/20 00:59:21;;;;;;;7.40;3.27;;;;;;;2.05;100.00;101030.59;5411166;26;19924;-74
2024/04/20 01:01:46;;;;;;;13.13;3.72;;;;;;;2.07;100.00;101033.94;5358262;26;20378;-75
2024/04/20 01:04:12;;;;;;;;;;;;;;;2.05;100.00;101038.56;5426587;26;20003;-73
2024/04/20 01:06:37;;;;;;;13.70;3.13;;;;;;;1.99;100.00;101033.78;5429271;26;20383;-72
2024/04/20 01:09:03;;;;;;;;;;;;;;;2.01;100.00;101038.00;5432060;26;20477;-74
2024/04/20 01:11:34;;;;;;;5.75;2.70;;;;;;;2.00;100.00;101038.13;5437693;26;19925;-73
2024/04/20 01:14:02;;;;;;;8.23;3.20;;;;;;;2.05;100.00;101044.69;5406197;26;20079;-74
2024/04/20 01:16:28;;;;;;;7.80;3.75;;;;;;;2.16;100.00;101045.56;5427445;26;20001;-74
2024/04/20 01:18:56;;;;;;;;;;;;;;;2.29;100.00;101056.78;5443023;26;20002;-74
2024/04/20 01:21:22;;;;;;;7.78;2.70;;;;;;;2.40;100.00;101050.50;5437621;26;19957;-73
2024/04/20 01:23:48;;;;;;;7.70;3.30;;;;;;;2.45;100.00;101066.88;5410287;26;20018;-73
2024/04/20 01:26:14;;;;;;;7.18;3.50;;;;;;;2.46;100.00;101063.25;5430076;26;19999;-73
2024/04/20 01:28:39;;;;;;;;;;;;;;;2.51;100.00;101065.47;5440342;26;20072;-73
2024/04/20 01:31:05;;;;;;;8.88;3.30;;;;;;;2.57;100.00;101063.09;5440571;26;19925;-73
2024/04/20 01:33:30;;;;;;;;;;;;;;;2.65;100.00;101066.88;5443303;26;20002;-73
2024/04/20 01:35:55;;;;;;;8.20;3.03;;;;;;;2.70;100.00;101073.47;5434508;26;20419;-73
2024/04/20 01:38:21;;;;;;;;;;;;;;;2.77;100.00;101075.53;5441220;26;20443;-73
2024/04/20 01:40:46;;;;;;;9.50;3.42;;;;;;;2.79;100.00;101074.44;5440620;26;19991;-74
2024/04/20 01:43:11;;;;;;;;;;;;;;;2.85;100.00;101079.16;5437308;26;20007;-73
2024/04/20 01:45:37;;;;;;;8.40;3.03;;;;;;;2.85;100.00;101079.16;5439664;26;19936;-73
2024/04/20 01:48:02;;;;;;;;;;;;;;;2.84;100.00;101080.16;5437545;26;21104;-73
2024/04/20 01:50:27;;;;;;;8.52;2.75;;;;;;;2.86;100.00;101078.19;5441159;26;19931;-73
2024/04/20 01:52:53;;;;;;;6.50;2.80;;;;;;;2.91;100.00;101082.25;5439029;26;20401;-74
2024/04/20 01:55:19;;;;;;;;;;;;;;;2.93;100.00;101086.44;5440933;26;20005;-73
2024/04/20 01:57:44;;;;;;;7.20;2.90;;;;;;;2.97;100.00;101081.69;5439124;26;19932;-72
2024/04/20 02:00:10;;;;;;;4.35;2.67;;;;;;;3.00;100.00;101084.91;5439845;26;20072;-72
2024/04/20 02:02:35;;;;;;;;;;;;;;;3.04;100.00;101082.78;5441548;26;20026;-73
2024/04/20 02:05:01;;;;;;;4.23;2.50;;;;;;;3.03;100.00;101091.75;5437976;26;19978;-73
2024/04/20 02:07:26;;;;;;;;;;;;;;;3.09;100.00;101091.19;5439353;26;19999;-74
2024/04/20 02:09:51;;;;;;;3.63;2.33;;;;;;;3.08;100.00;101102.00;5440548;26;21623;-73
2024/04/20 02:12:17;;;;;;;;;;;;;;;3.08;100.00;101100.16;5439607;26;20322;-73
2024/04/20 02:14:42;;;;;;;4.73;1.97;;;;;;;3.06;100.00;101110.09;5438620;26;19928;-73
2024/04/20 02:17:07;;;;;;;;;;;;;;;3.08;100.00;101109.97;5438039;26;20755;-72
2024/04/20 02:19:33;;;;;;;5.10;2.50;;;;;;;3.09;100.00;101120.47;5442318;26;19931;-73
2024/04/20 02:21:58;;;;;;;4.50;2.80;;;;;;;3.09;100.00;101123.13;5433136;26;20337;-73
2024/04/20 02:24:23;;;;;;;8.00;3.05;;;;;;;3.09;100.00;101128.44;5444013;26;20009;-73
2024/04/20 02:26:49;;;;;;;3.88;2.40;;;;;;;3.10;100.00;101130.13;5444827;26;20324;-73
2024/04/20 02:29:14;;;;;;;;;;;;;;;3.10;100.00;101134.59;5444792;26;19994;-73
2024/04/20 02:31:40;;;;;;;3.97;2.57;;;;;;;3.14;100.00;101125.34;5438736;26;19928;-73
2024/04/20 02:34:05;;;;;;;;;;;;;;;3.16;100.00;101129.56;5447688;26;20009;-73
2024/04/20 02:36:31;;;;;;;3.55;2.28;;;;;;;3.18;100.00;101126.75;5438027;26;20309;-73
2024/04/20 02:38:56;;;;;;;;;;;;;;;3.17;100.00;101133.91;5440837;26;20475;-74
2024/04/20 02:41:21;;;;;;;5.53;2.73;;;;;;;3.22;100.00;101138.81;5438233;26;19974;-73
2024/04/20 02:43:47;;;;;;;;;;;;;;;3.22;100.00;101143.25;5440472;26;19990;-73
2024/04/20 02:46:12;;;;;;;3.83;2.50;;;;;;;3.19;100.00;101147.88;5441951;26;19953;-73
2024/04/20 02:48:38;;;;;;;3.22;2.30;;;;;;;3.22;100.00;101152.09;5437765;26;20652;-73
2024/04/20 02:51:03;;;;;;;;;;;;;;;3.26;100.00;101155.31;5436440;26;20003;-73
2024/04/20 02:53:29;;;;;;;4.40;2.03;;;;;;;3.29;100.00;101155.03;5441420;26;19940;-74
2024/04/20 02:55:54;;;;;;;;;;;;;;;3.31;100.00;101153.91;5454975;26;19995;-73
2024/04/20 02:58:19;;;;;;;4.40;2.03;;;;;;;3.30;100.00;101157.53;5444132;26;19935;-73
2024/04/20 03:00:55;;;;;;;;;;;;;;;3.29;100.00;101155.03;5437271;26;20441;-74
2024/04/20 03:03:20;;;;;;;3.92;2.20;;;;;;;3.32;100.00;101162.75;5436349;26;19932;-74
2024/04/20 03:05:45;;;;;;;;;;;;;;;3.34;100.00;101166.09;5443857;26;20003;-72
2024/04/20 03:08:11;;;;;;;4.20;1.70;;;;;;;3.35;100.00;101170.44;5444026;26;19935;-72
2024/04/20 03:10:36;;;;;;;;;;;;;;;3.41;100.00;101175.19;5443828;26;20003;-72
2024/04/20 03:13:01;;;;;;;4.28;2.08;;;;;;;3.39;100.00;101169.16;5440599;26;20014;-73
2024/04/20 03:15:26;;;;;;;;;;;;;;;3.39;100.00;101171.00;5444347;26;19999;-72
2024/04/20 03:17:52;;;;;;;4.67;1.70;;;;;;;3.43;100.00;101173.22;5431414;26;19998;-72
2024/04/20 03:20:17;;;;;;;;;;;;;;;3.40;100.00;101176.16;5430538;26;20021;-73
2024/04/20 03:22:42;;;;;;;4.80;1.80;;;;;;;3.38;100.00;101170.13;5430716;26;19940;-73
2024/04/20 03:25:12;;;;;;;;;;;;;;;3.32;100.00;101176.03;5436417;26;19999;-73
2024/04/20 03:27:37;;;;;;;3.33;1.65;;;;;;;3.34;100.00;101168.75;5443825;26;19964;-73
2024/04/20 03:30:04;;;;;;;;;;;;;;;3.34;100.00;101174.09;5428393;26;20026;-73
2024/04/20 03:32:29;;;;;;;4.15;1.42;;;;;;;3.32;100.00;101184.03;5443724;26;21241;-73
2024/04/20 03:34:57;;;;;;;;;;;;;;;3.32;100.00;101184.03;5425936;26;21851;-73
2024/04/20 03:37:23;;;;;;;3.88;1.40;;;;;;;3.34;100.00;101187.38;5424899;26;19924;-73
2024/04/20 03:39:48;;;;;;;;;;;;;;;3.34;100.00;101185.56;5442499;26;20003;-72
2024/04/20 03:42:14;;;;;;;4.67;1.50;;;;;;;3.32;100.00;101194.66;5440301;26;19932;-73
2024/04/20 03:44:39;;;;;;;3.90;1.75;;;;;;;3.35;100.00;101191.72;5443029;26;20605;-73
2024/04/20 03:47:05;;;;;;;;;;;;;;;3.33;100.00;101193.69;5445140;26;19995;-73
2024/04/20 03:49:30;;;;;;;4.33;1.33;;;;;;;3.33;100.00;101196.34;5442277;26;19924;-74
2024/04/20 03:51:55;;;;;;;;;;;;;;;3.29;100.00;101202.94;5443617;26;19998;-73
2024/04/20 03:54:21;;;;;;;3.43;1.17;;;;;;;3.29;100.00;101206.41;5462504;26;20348;-73
2024/04/20 03:56:47;;;;;;;;;;;;;;;3.32;100.00;101210.63;5439379;26;20434;-73
2024/04/20 03:59:13;;;;;;;7.03;1.55;;;;;;;3.30;100.00;101209.94;5439521;26;20002;-72
2024/04/20 04:01:38;;;;;;;;;;;;;;;3.29;100.00;101217.06;5444829;26;20007;-73
2024/04/20 04:04:04;;;;;;;4.90;1.20;;;;;;;3.30;100.00;101216.06;5432539;26;20352;-73
2024/04/20 04:06:29;;;;;;;;;;;;;;;3.29;100.00;101225.03;5451263;26;20006;-73
2024/04/20 04:08:55;;;;;;;4.40;1.20;;;;;;;3.31;100.00;101227.59;5454181;26;19948;-72
2024/04/20 04:11:20;;;;;;;;;;;;;;;3.30;100.00;101232.03;5434483;26;20029;-73
2024/04/20 04:13:45;;;;;;;3.65;0.90;;;;;;;3.35;100.00;101231.66;5440593;26;19952;-72
2024/04/20 04:16:10;;;;;;;;;;;;;;;3.38;100.00;101231.34;5446547;26;19994;-71
2024/04/20 04:18:36;;;;;;;3.87;0.97;;;;;;;3.35;100.00;101229.00;5441953;26;19924;-73
2024/04/20 04:21:01;;;;;;;;;;;;;;;3.34;100.00;101230.78;5444848;26;20127;-73
2024/04/20 04:23:27;;;;;;;3.55;0.80;;;;;;;3.36;100.00;101235.13;5440057;26;19944;-73
2024/04/20 04:25:52;;;;;;;0.80;0.68;;;;;;;3.36;100.00;101229.81;5426208;26;20119;-73
2024/04/20 04:28:17;;;;;;;;;;;;;;;3.36;100.00;101245.78;5442745;26;20327;-73
2024/04/20 04:30:46;;;;;;;2.33;1.40;;;;;;;3.32;100.00;101240.72;5443582;26;19993;-73
2024/04/20 04:33:11;;;;;;;4.78;1.10;;;;;;;3.35;100.00;101250.28;5439516;26;20015;-74
2024/04/20 04:35:36;;;;;;;;;;;;;;;3.39;100.00;101253.50;5443879;26;19998;-74
2024/04/20 04:38:04;;;;;;;2.17;0.90;;;;;;;3.38;100.00;101257.94;5441191;26;21989;-74
2024/04/20 04:40:30;;;;;;;3.92;0.90;;;;;;;3.41;100.00;101260.34;5438017;26;20022;-73
2024/04/20 04:42:55;;;;;;;;;;;;;;;3.41;100.00;101259.53;5464867;26;20011;-73
2024/04/20 04:45:20;;;;;;;2.77;1.13;;;;;;;3.49;100.00;101267.63;5440094;26;19924;-74
2024/04/20 04:47:46;;;;;;;;;;;;;;;3.47;100.00;101265.13;5443729;26;19991;-73
2024/04/20 04:50:11;;;;;;;1.03;0.93;;;;;;;3.47;100.00;101278.44;5444015;26;19944;-73
2024/04/20 04:52:36;;;;;;;;;;;;;;;3.47;100.00;101275.75;5441700;26;20327;-73
2024/04/20 04:55:02;;;;;;;7.97;2.00;;;;;;;3.48;100.00;101282.78;5443754;26;19924;-72
2024/04/20 04:57:27;;;;;;;3.67;0.80;;;;;;;3.52;100.00;101287.81;5441487;26;20584;-72
2024/04/20 04:59:52;;;;;;;;;;;;;;;3.51;100.00;101286.97;5443675;26;20017;-72
2024/04/20 05:02:20;;;;;;;3.13;1.00;;;;;;;3.55;100.00;101285.72;5442715;26;20260;-73
2024/04/20 05:04:46;;;;;;;1.65;0.70;;;;;;;3.58;100.00;101297.88;5441397;26;20632;-73
2024/04/20 05:07:11;;;;;;;;;;;;;;;3.63;100.00;101295.66;5442732;26;20438;-72
2024/04/20 05:09:38;;;;;;;3.67;1.10;;;;;;;3.66;100.00;101305.19;5442795;26;19937;-73
2024/04/20 05:12:05;;;;;;;1.92;0.70;;;;;;;3.68;100.00;101309.41;5442340;26;20003;-74
2024/04/20 05:14:30;;;;;;;1.23;0.77;;;;;;;3.79;100.00;101301.25;5439303;26;20439;-73
2024/04/20 05:16:55;;;;;;;;;;;;;;;3.87;100.00;101313.03;5441970;26;20017;-73
2024/04/20 05:19:21;;;;;;;0.67;0.63;;;;;;;3.82;100.00;101317.94;5443128;26;19924;-73
2024/04/20 05:21:46;;;;;;;;;;;;;;;3.79;100.00;101316.41;5441560;26;19991;-73
2024/04/20 05:24:15;;;;;;;1.27;0.70;;;;;;;3.84;100.00;101318.63;5444154;26;19940;-74
2024/04/20 05:26:40;;;;;;;1.92;0.85;;;;;;;3.88;100.00;101325.38;5441242;26;20431;-73
2024/04/20 05:29:06;;;;;;;;;;;;;;;3.93;100.00;101325.78;5442750;26;20006;-74
2024/04/20 05:31:31;;;;;;;0.97;0.60;;;;;;;3.98;100.00;101339.50;5442185;26;19924;-74
2024/04/20 05:33:56;;;;;;;;;;;;;;;4.00;100.00;101329.56;5442792;26;20060;-74
2024/04/20 05:36:22;;;;;;;0.60;0.60;;;;;;;4.01;100.00;101346.38;5438421;26;19936;-74
2024/04/20 05:38:47;;;;;;;;;;;;;;;4.03;100.00;101344.41;5423557;26;20276;-73
2024/04/20 05:41:12;;;;;;;1.90;0.70;;;;;;;4.06;100.00;101344.97;5442297;26;19961;-73
2024/04/20 05:43:38;;;;;;;0.98;0.55;;;;;;;4.06;100.00;101350.28;5460576;26;20253;-75
2024/04/20 05:46:06;;;;;;;;;;;;;;;4.05;100.00;101348.63;5444919;26;20004;-74
2024/04/20 05:48:33;;;;;;;1.17;0.60;;;;;;;4.08;100.00;101358.97;5450724;26;19962;-73
2024/04/20 05:51:01;;;;;;;0.90;0.55;;;;;;;4.12;100.00;101350.72;5455822;25;20100;-75
2024/04/20 05:53:26;;;;;;;1.42;0.80;;;;;;;4.19;100.00;101360.66;5446740;26;19999;-74
2024/04/20 05:55:52;;;;;;;;;;;;;;;4.22;100.00;101370.22;5412123;26;20331;-73
2024/04/20 05:58:17;;;;;;;2.50;0.80;;;;;;;4.15;100.00;101367.25;5421229;26;19947;-74
2024/04/20 06:00:42;;;;;;;;;;;;;;;4.15;100.00;101374.41;5428389;26;19994;-73
2024/04/20 06:03:10;;;;;;;1.40;0.60;;;;;;;4.09;100.00;101371.31;5444844;26;19931;-77
2024/04/20 06:05:35;;;;;;;1.35;1.15;;;;;;;4.07;100.00;101375.94;5442172;26;20267;-73
2024/04/20 06:08:00;;;;;;;;;;;;;;;4.05;100.00;101377.94;5441983;26;20003;-73
2024/04/20 06:10:26;;;;;;;1.60;0.70;;;;;;;4.07;100.00;101377.78;5441078;26;19925;-74
2024/04/20 06:12:51;;;;;;;;;;;;;;;4.03;100.00;101387.91;5427672;26;20317;-73
2024/04/20 06:15:16;;;;;;;3.20;0.90;;;;;;;4.05;100.00;101385.94;5426768;26;20281;-73
2024/04/20 06:17:42;;;;;;;;;;;;;;;4.09;100.00;101391.81;5441142;26;20399;-72
2024/04/20 06:20:11;;;;;;;3.40;0.80;;;;;;;4.15;100.00;101390.41;5424414;26;19925;-73
2024/04/20 06:22:37;;;;;;;4.57;1.25;;;;;;;4.18;100.00;101390.13;5431572;26;20043;-73
2024/04/20 06:25:04;;;;;;;;;;;;;;;4.28;100.00;101406.94;5427572;26;22126;-74
2024/04/20 06:27:31;;;;;;;3.07;0.90;;;;;;;4.39;100.00;101408.59;5433687;26;20342;-74
2024/04/20 06:29:56;;;;;;;2.92;1.00;;;;;;;4.54;100.00;101407.19;5440238;26;20006;-74
2024/04/20 06:32:22;;;;;;;;;;;;;;;4.58;100.00;101407.75;5439223;26;20002;-73
2024/04/20 06:34:47;;;;;;;1.40;0.80;;;;;;;4.67;100.00;101417.53;5442765;26;19972;-74
2024/04/20 06:37:14;;;;;;;;;;;;;;;4.69;100.00;101412.91;5454501;26;20006;-74
2024/04/20 06:39:43;;;;;;;1.33;0.70;;;;;;;4.77;100.00;101422.00;5426854;26;20005;-72
2024/04/20 06:42:08;;;;;;;4.88;0.95;;;;;;;4.79;100.00;101425.38;5435932;26;20638;-73
2024/04/20 06:44:33;;;;;;;;;;;;;;;4.81;100.00;101437.59;5432925;26;19991;-73
2024/04/20 06:47:03;;;;;;;1.33;0.70;;;;;;;4.86;100.00;101431.81;5441230;26;20377;-72
2024/04/20 06:49:28;;;;;;;3.25;1.40;;;;;;;4.89;100.00;101436.88;5459203;26;20006;-73
2024/04/20 06:51:53;;;;;;;;;;;;;;;4.89;100.00;101436.00;5441381;26;20010;-73
2024/04/20 06:54:19;;;;;;;3.00;0.90;;;;;;;4.92;100.00;101447.25;5426141;26;19984;-73
2024/04/20 06:56:44;;;;;;;;;;;;;;;4.94;100.00;101433.75;5418555;26;20026;-74
2024/04/20 06:59:10;;;;;;;2.73;0.97;;;;;;;5.07;100.00;101438.78;5437536;26;19931;-73
2024/04/20 07:01:35;;;;;;;;;;;;;;;5.27;100.00;101456.41;5442638;26;20006;-73
2024/04/20 07:04:00;;;;;;;2.40;0.90;;;;;;;5.47;100.00;101448.31;5431924;26;19924;-74
2024/04/20 07:06:25;;;;;;;;;;;;;;;5.46;100.00;101459.97;5441053;26;20221;-72
2024/04/20 07:08:51;;;;;;;5.60;1.07;;;;;;;5.55;100.00;101456.41;5440402;26;20256;-73
2024/04/20 07:11:18;;;;;;;;;;;;;;;5.58;100.00;101463.25;5442660;26;20358;-72
2024/04/20 07:13:44;;;;;;;1.65;0.90;;;;;;;5.82;100.00;101465.38;5449259;26;20362;-72
2024/04/20 07:16:10;;;;;;;3.63;1.10;;;;;;;6.06;100.00;101469.31;5446996;26;20015;-72
2024/04/20 07:18:35;;;;;;;4.22;1.00;;;;;;;6.39;100.00;101474.97;5432085;26;20044;-74
2024/04/20 07:21:07;;;;;;;2.70;1.00;;;;;;;6.59;100.00;101474.81;5463256;26;20027;-72
2024/04/20 07:23:33;;;;;;;2.33;1.00;;;;;;;6.82;100.00;101483.16;5441461;26;20517;-73
2024/04/20 07:25:58;;;;;;;3.65;1.05;;;;;;;6.99;100.00;101484.13;5419043;26;20003;-73
2024/04/20 07:28:27;;;;;;;3.47;0.98;;;;;;;7.24;100.00;101481.56;5441967;26;20278;-73
2024/04/20 07:30:52;;;;;;;4.15;1.13;;;;;;;7.59;100.00;101501.16;5447724;26;20003;-73
2024/04/20 07:33:18;;;;;;;4.25;1.05;;;;;;;7.70;98.98;101497.34;5415977;26;20010;-73
2024/04/20 07:35:47;;;;;;;5.30;1.08;;;;;;;7.84;99.03;101514.66;5459666;26;20075;-73
2024/04/20 07:38:12;;;;;;;3.13;1.13;;;;;;;7.74;96.36;101514.78;5440819;26;20072;-74
2024/04/20 07:40:38;;;;;;;4.55;1.35;;;;;;;8.00;97.75;101520.06;5440952;26;20002;-72
2024/04/20 07:43:03;;;;;;;3.33;0.98;;;;;;;7.83;93.87;101521.88;5441771;26;20010;-73
2024/04/20 07:45:29;;;;;;;3.60;0.93;;;;;;;7.77;92.09;101522.50;5442813;26;20003;-73
2024/04/20 07:47:57;;;;;;;4.15;1.00;;;;;;;7.65;93.98;101526.50;5439272;26;20499;-73
2024/04/20 07:50:22;;;;;;;4.45;1.90;;;;;;;7.57;94.48;101519.25;5438225;26;20006;-73
2024/04/20 07:52:49;;;;;;;3.40;1.08;;;;;;;8.06;97.29;101531.16;5456755;26;20002;-72
2024/04/20 07:55:14;;;;;;;4.60;1.10;;;;;;;8.76;95.27;101535.28;5456005;26;19998;-73
2024/04/20 07:57:40;;;;;;;4.47;1.17;;;;;;;9.18;85.68;101536.91;5439466;26;20013;-72
2024/04/20 08:00:06;;;;;;;5.07;1.20;;;;;;;9.59;84.23;101540.50;5436938;26;19999;-72
2024/04/20 08:02:32;;;;;;;5.40;0.90;;;;;;;9.69;83.59;101546.53;5415029;26;20002;-73
2024/04/20 08:04:57;;;;;;;7.68;1.70;;;;;;;9.38;82.49;101549.97;5433120;26;20021;-73
2024/04/20 08:07:22;;;;;;;3.25;1.17;;;;;;;8.98;83.80;101554.44;5440361;26;20449;-73
2024/04/20 08:09:48;;;;;;;4.82;1.27;;;;;;;8.78;86.08;101557.44;5437579;26;20416;-73
2024/04/20 08:12:13;;;;;;;5.80;1.23;;;;;;;8.61;86.86;101545.84;5438730;26;20042;-73
2024/04/20 08:14:39;;;;;;;4.50;1.30;;;;;;;8.59;86.49;101556.75;5442642;26;20492;-72
2024/04/20 08:17:04;;;;;;;4.60;1.17;;;;;;;9.06;86.69;101563.31;5437285;26;20079;-73
2024/04/20 08:19:30;;;;;;;3.78;1.10;;;;;;;9.76;84.73;101562.81;5441476;26;20002;-73
2024/04/20 08:21:56;;;;;;;3.90;1.50;;;;;;;10.76;81.83;101569.31;5433214;26;20330;-74
2024/04/20 08:24:24;;;;;;;4.10;1.55;;;;;;;11.16;76.36;101563.75;5466088;26;20479;-73
2024/04/20 08:26:49;;;;;;;9.00;1.52;;;;;;;10.95;72.96;101575.22;5435873;26;20042;-74
2024/04/20 08:29:16;;;;;;;3.47;1.23;;;;;;;11.17;78.71;101582.44;5439238;26;20014;-73
2024/04/20 08:31:41;;;;;;;10.63;2.05;;;;;;;10.54;72.96;101571.00;5437390;26;20013;-73
2024/04/20 08:34:07;;;;;;;7.75;1.52;;;;;;;10.06;73.02;101571.91;5439092;26;20027;-73
2024/04/20 08:36:32;;;;;;;5.03;1.55;;;;;;;9.85;77.29;101583.28;5438189;26;20075;-74
2024/04/20 08:38:58;;;;;;;5.88;1.70;;;;;;;11.09;74.81;101592.47;5421924;26;20035;-73
2024/04/20 08:41:29;;;;;;;4.13;1.55;;;;;;;13.03;69.00;101597.59;5436294;26;20557;-74
2024/04/20 08:43:54;;;;;;;4.97;1.40;;;;;;;13.54;61.25;101605.69;5434120;26;20025;-74
2024/04/20 08:46:22;;;;;;;7.25;1.65;;;;;;;14.13;58.43;101600.78;5444903;26;19999;-73
2024/04/20 08:48:47;;;;;;;5.03;1.40;;;;;;;13.81;57.11;101606.69;5408701;26;20002;-74
2024/04/20 08:51:13;;;;;;;4.07;1.25;;;;;;;13.35;59.74;101603.44;5441187;26;20073;-73
2024/04/20 08:53:39;;;;;;;6.88;1.50;;;;;;;12.89;59.28;101602.03;5442212;26;20025;-73
2024/04/20 08:56:05;;;;;;;5.15;1.52;;;;;;;11.93;62.85;101607.56;5398854;26;20080;-73
2024/04/20 08:58:31;;;;;;;5.18;1.48;;;;;;;11.12;66.47;101611.78;5428342;26;20007;-73
2024/04/20 09:00:58;;;;;;;5.88;1.55;;;;;;;9.58;73.90;101616.78;5438532;26;20361;-73
2024/04/20 09:03:23;;;;;;;1.88;0.98;;;;;;;8.96;80.32;101613.66;5440797;26;20459;-72
2024/04/20 09:05:49;;;;;;;2.90;0.93;;;;;;;8.25;83.91;101614.03;5406917;26;20053;-73
2024/04/20 09:08:15;;;;;;;1.98;0.88;;;;;;;7.93;86.80;101610.22;5438198;26;20055;-73
2024/04/20 09:10:40;;;;;;;4.95;1.05;;;;;;;7.73;89.37;101620.31;5424600;26;20423;-73
2024/04/20 09:13:08;;;;;;;4.45;1.05;;;;;;;7.56;92.48;101611.34;5439844;26;20142;-73
2024/04/20 09:15:33;;;;;;;4.07;1.20;;;;;;;7.46;96.94;101615.97;5440498;26;19998;-72
2024/04/20 09:17:58;;;;;;;5.25;1.27;;;;;;;7.37;98.31;101621.28;5439173;26;19995;-73
2024/04/20 09:20:24;;;;;;;4.45;1.20;;;;;;;7.74;100.00;101620.16;5439888;26;20026;-73
2024/04/20 09:22:50;;;;;;;4.35;1.42;;;;;;;8.21;97.00;101623.38;5439827;26;20409;-73
2024/04/20 09:25:19;;;;;;;2.65;1.10;;;;;;;8.60;93.81;101628.22;5440196;26;20014;-73
2024/04/20 09:27:51;;;;;;;5.15;1.63;;;;;;;8.76;92.66;101634.63;5430853;26;20010;-73
2024/04/20 09:30:16;;;;;;;11.60;1.90;;;;;;;8.84;91.03;101650.72;5416946;26;20066;-74
2024/04/20 09:32:42;;;;;;;6.18;1.50;;;;;;;8.46;87.97;101644.94;5430956;26;20422;-75
2024/04/20 09:35:07;;;;;;;6.47;1.40;;;;;;;7.77;87.48;101645.81;5429279;26;19990;-74
2024/04/20 09:37:33;;;;;;;5.18;1.35;;;;;;;7.52;94.39;101650.19;5433053;26;19994;-72
2024/04/20 09:39:58;;;;;;;3.33;1.05;;;;;;;7.08;96.23;101629.59;5439971;26;20031;-72
2024/04/20 09:42:25;;;;;;;2.60;1.20;;;;;;;6.89;100.00;101635.94;5443237;26;20045;-72
2024/04/20 09:44:50;;;;;;;3.47;1.25;;;;;;;6.82;100.00;101617.81;5372211;26;20013;-71
2024/04/20 09:47:18;;;;;;;2.30;1.10;;;;;;;7.39;100.00;101630.00;5363884;26;19999;-72
2024/04/20 09:49:43;;;;;;;4.80;1.30;;;;;;;8.85;91.89;101622.88;5398006;26;20322;-72
2024/04/20 09:52:35;;;;;;;4.20;1.17;;;;;;;9.44;86.62;101623.72;5389196;26;20227;-72
2024/04/20 09:55:11;;;;;;;1.95;1.00;;;;;;;11.48;86.92;101634.53;5378824;26;20002;-73
2024/04/20 09:57:38;;;;;;;2.42;0.90;;;;;;;13.01;72.80;101631.25;5333274;26;20326;-73
2024/04/20 10:00:06;;;;;;;1.88;1.00;;;;;;;14.32;64.91;101631.69;5406465;26;20027;-74
2024/04/20 10:02:31;;;;;;;2.35;1.08;;;;;;;14.87;65.40;101638.94;5373888;26;20037;-73
2024/04/20 10:04:58;;;;;;;2.80;1.20;;;;;;;15.79;61.45;101639.09;5408616;26;20307;-73
2024/04/20 10:07:29;;;;;;;3.47;1.05;;;;;;;16.07;55.05;101635.28;5440075;26;20013;-72
2024/04/20 10:09:56;;;;;;;2.60;1.23;;;;;;;16.42;56.69;101642.25;5429308;26;20355;-73
2024/04/20 10:12:21;;;;;;;4.22;1.50;;;;;;;17.07;55.33;101636.66;5434484;26;20006;-73
2024/04/20 10:14:47;;;;;;;6.00;2.10;;;;;;;16.34;58.15;101643.34;5400093;26;19998;-72
2024/04/20 10:17:13;;;;;;;7.07;2.10;;;;;;;15.31;54.47;101634.78;5394342;26;20019;-73
2024/04/20 10:19:43;;;;;;;9.90;3.92;;;;;;;14.03;67.50;101634.47;5412295;26;20422;-72
2024/04/20 10:22:10;;;;;;;12.15;6.53;;;;;;;12.88;75.78;101630.06;5454784;26;19998;-73
2024/04/20 10:24:35;;;;;;;6.63;3.95;;;;;;;12.23;71.81;101630.00;5435525;26;20002;-72
2024/04/20 10:27:01;;;;;;;4.03;2.20;;;;;;;11.01;72.87;101625.69;5449326;26;20426;-72
2024/04/20 10:29:27;;;;;;;5.18;1.50;;;;;;;10.32;73.73;101622.72;5439058;26;20049;-73
2024/04/20 10:31:58;;;;;;;6.35;2.50;;;;;;;10.43;83.76;101629.59;5440096;26;20018;-74
2024/04/20 10:34:27;;;;;;;5.50;2.10;;;;;;;10.01;79.90;101614.66;5451047;26;20002;-72
2024/04/20 10:37:02;;;;;;;3.25;1.10;;;;;;;9.58;78.12;101619.47;5395581;26;20018;-73
2024/04/20 10:39:28;;;;;;;2.38;1.20;;;;;;;9.50;77.70;101625.72;5430408;26;20469;-73
2024/04/20 10:42:13;;;;;;;6.65;1.38;;;;;;;10.10;80.86;101612.78;5443514;26;20025;-73
2024/04/20 10:44:39;;;;;;;5.85;1.40;;;;;;;11.77;73.04;101627.50;5431043;26;20009;-73
2024/04/20 10:47:07;;;;;;;3.55;1.30;;;;;;;13.44;75.57;101636.59;5454169;26;20002;-73
2024/04/20 10:49:32;;;;;;;4.38;1.30;;;;;;;14.54;63.73;101629.66;5432167;26;20021;-74
2024/04/20 10:51:58;;;;;;;5.13;1.25;;;;;;;13.75;62.43;101653.47;5461634;26;20457;-74
2024/04/20 10:54:24;;;;;;;2.42;1.02;;;;;;;12.72;63.50;101660.06;5440508;26;19998;-74
2024/04/20 10:56:54;;;;;;;4.93;1.45;;;;;;;10.18;69.65;101646.88;5441974;26;20006;-73
2024/04/20 10:59:22;;;;;;;4.57;1.35;;;;;;;8.60;82.12;101644.34;5431607;26;20006;-73
2024/04/20 11:01:47;;;;;;;5.63;1.40;;;;;;;8.16;83.55;101652.53;5418831;26;20018;-73
2024/04/20 11:04:13;;;;;;;4.97;1.67;;;;;;;7.62;90.21;101640.19;5415033;26;20008;-73
2024/04/20 11:06:38;;;;;;;5.68;1.35;;;;;;;7.30;94.96;101633.59;5409175;26;20015;-73
2024/04/20 11:09:11;;;;;;;3.65;1.30;;;;;;;8.07;99.32;101637.41;5425015;26;21518;-73
2024/04/20 11:11:36;;;;;;;5.95;1.60;;;;;;;8.79;95.18;101631.63;5432392;26;19995;-73
2024/04/20 11:14:05;;;;;;;7.32;2.50;;;;;;;9.68;89.48;101633.59;5430148;26;20025;-74
2024/04/20 11:16:31;;;;;;;6.45;2.50;;;;;;;11.04;89.11;101633.41;5423586;26;20030;-73
2024/04/20 11:18:56;;;;;;;4.78;1.45;;;;;;;12.29;79.67;101644.59;5425503;26;20003;-74
2024/04/20 11:21:21;;;;;;;4.20;1.33;;;;;;;12.95;76.76;101642.81;5440447;26;20076;-73
2024/04/20 11:23:48;;;;;;;3.30;1.55;;;;;;;13.69;74.97;101638.88;5407679;26;20341;-73
2024/04/20 11:26:15;;;;;;;5.22;2.20;;;;;;;14.23;69.24;101642.69;5432464;26;19995;-74
2024/04/20 11:28:46;;;;;;;5.03;2.42;;;;;;;13.64;69.85;101646.75;5453243;26;20006;-74
2024/04/20 11:31:12;;;;;;;4.90;2.20;;;;;;;12.85;68.08;101627.78;5438729;26;20003;-73
2024/04/20 11:33:44;;;;;;;3.70;1.50;;;;;;;11.85;71.30;101631.97;5442579;26;19995;-74
2024/04/20 11:36:09;;;;;;;5.78;1.70;;;;;;;11.48;78.62;101626.44;5447812;26;20028;-73